Dillon, Colorado
Current Conditions -  °F | °C
As of 6:37 PM on Wednesday 22 Oct 2014 (Local Time) from KCCU Reporting Station
Broken Clouds Broken Clouds  
Wind Chill: -1°   Ceiling: 3200
Heat Index:   Visibility: 10mi
Dew Point: -2°   Wind: 9mph
Humidity: 70%   Direction: 220°SW
Pressure: 30.42"   Gusts: 17mph
Location:  39.63°N, 106.04°W
Report Text: KCCU 230037Z AUTO 22008G15KT 170V250 10SM BKN032 BKN038 BKN075 03/M02 A3042 RMK AO2
Loading
Personal Weather Stations






























Interactive Weather Map
Tropical Storm Tracking
New forecast layout! Learn more

10-Day Weather Forecast

Advertisements
Track Severe Weather on mobile